createdAt,value
2022-09-07T00:00:35.736Z,66.80
2022-09-07T00:01:33.705Z,66.50
2022-09-07T00:02:33.718Z,66.00
2022-09-07T00:03:33.715Z,66.60
2022-09-07T00:04:33.723Z,66.91
2022-09-07T00:05:33.675Z,67.00
2022-09-07T00:06:33.642Z,67.00
2022-09-07T00:07:33.662Z,66.80
2022-09-07T00:08:33.593Z,66.53
2022-09-07T00:09:33.604Z,66.94
2022-09-07T00:10:33.604Z,66.74
2022-09-07T00:11:33.573Z,66.53
2022-09-07T00:12:33.595Z,66.63
2022-09-07T00:13:33.546Z,66.13
2022-09-07T00:14:33.518Z,66.33
2022-09-07T00:15:33.533Z,67.24
2022-09-07T00:16:33.541Z,66.94
2022-09-07T00:17:33.488Z,66.53
2022-09-07T00:18:33.464Z,66.53
2022-09-07T00:19:33.452Z,66.83
2022-09-07T00:20:33.445Z,66.83
2022-09-07T00:21:33.430Z,67.03
2022-09-07T00:22:33.417Z,66.53
2022-09-07T00:23:33.394Z,67.14
2022-09-07T00:24:33.382Z,66.74
2022-09-07T00:25:33.383Z,66.67
2022-09-07T00:26:33.363Z,66.87
2022-09-07T00:27:33.345Z,66.47
2022-09-07T00:28:33.324Z,66.56
2022-09-07T00:29:33.323Z,66.67
2022-09-07T00:30:33.312Z,66.36
2022-09-07T00:31:33.384Z,66.56
2022-09-07T00:32:33.274Z,66.97
2022-09-07T00:33:33.263Z,66.56
2022-09-07T00:34:33.263Z,66.67
2022-09-07T00:35:33.244Z,67.07
2022-09-07T00:36:33.232Z,67.17
2022-09-07T00:37:33.210Z,67.07
2022-09-07T00:38:33.192Z,67.37
2022-09-07T00:39:33.236Z,67.17
2022-09-07T00:40:33.174Z,66.87
2022-09-07T00:41:33.152Z,66.70
2022-09-07T00:42:33.151Z,67.40
2022-09-07T00:43:33.133Z,67.30
2022-09-07T00:44:33.113Z,67.50
2022-09-07T00:45:33.113Z,67.50
2022-09-07T00:46:33.124Z,67.50
2022-09-07T00:47:33.074Z,67.50
2022-09-07T00:48:33.106Z,68.31
2022-09-07T00:49:33.052Z,67.80
2022-09-07T00:50:33.042Z,68.21
2022-09-07T00:51:33.022Z,68.21
2022-09-07T00:52:33.004Z,68.31
2022-09-07T00:53:32.993Z,68.21
2022-09-07T00:54:32.994Z,68.61
2022-09-07T00:55:32.973Z,68.21
2022-09-07T00:56:32.956Z,67.80
2022-09-07T00:57:32.943Z,68.24
2022-09-07T00:58:32.922Z,68.24
2022-09-07T00:59:32.917Z,68.14
2022-09-07T01:00:32.910Z,67.63
2022-09-07T01:01:32.953Z,67.94
2022-09-07T01:02:32.992Z,67.63
2022-09-07T01:03:32.860Z,67.94
2022-09-07T01:04:32.875Z,67.84
2022-09-07T01:05:32.841Z,67.84
2022-09-07T01:06:32.823Z,67.94
2022-09-07T01:07:32.814Z,67.84
2022-09-07T01:08:32.790Z,67.84
2022-09-07T01:09:32.772Z,67.74
2022-09-07T01:10:32.772Z,67.63
2022-09-07T01:11:32.761Z,67.63
2022-09-07T01:12:32.721Z,67.84
2022-09-07T01:13:32.723Z,68.65
2022-09-07T01:14:32.701Z,68.34
2022-09-07T01:15:32.751Z,68.04
2022-09-07T01:16:32.680Z,68.65
2022-09-07T01:17:32.672Z,68.37
2022-09-07T01:18:32.663Z,68.77
2022-09-07T01:19:32.641Z,68.68
2022-09-07T01:20:32.641Z,68.88
2022-09-07T01:21:32.611Z,68.48
2022-09-07T01:22:32.604Z,68.27
2022-09-07T01:23:32.592Z,68.77
2022-09-07T01:24:32.591Z,68.37
2022-09-07T01:25:32.581Z,68.77
2022-09-07T01:26:32.551Z,68.37
2022-09-07T01:27:32.541Z,68.07
2022-09-07T01:28:32.543Z,70.19
2022-09-07T01:29:32.511Z,69.79
2022-09-07T01:30:32.511Z,69.68
2022-09-07T01:31:32.524Z,69.38
2022-09-07T01:32:32.476Z,70.09
2022-09-07T01:33:32.452Z,69.48
2022-09-07T01:34:32.440Z,69.21
2022-09-07T01:35:32.445Z,68.81
2022-09-07T01:36:32.413Z,68.91
2022-09-07T01:37:32.438Z,69.11
2022-09-07T01:38:32.382Z,69.31
2022-09-07T01:39:32.382Z,69.21
2022-09-07T01:40:32.371Z,69.52
2022-09-07T01:41:32.351Z,70.32
2022-09-07T01:42:32.360Z,69.72
2022-09-07T01:43:32.325Z,69.92
2022-09-07T01:44:32.301Z,70.32
2022-09-07T01:45:32.359Z,70.12
2022-09-07T01:46:32.366Z,70.22
2022-09-07T01:47:32.273Z,70.73
2022-09-07T01:48:32.261Z,70.93
2022-09-07T01:49:32.242Z,70.83
2022-09-07T01:50:32.242Z,70.53
2022-09-07T01:51:32.214Z,71.23
2022-09-07T01:52:32.201Z,71.33
2022-09-07T01:53:32.190Z,70.93
2022-09-07T01:54:32.173Z,70.93
2022-09-07T01:55:32.201Z,70.93
2022-09-07T01:56:32.143Z,71.03
2022-09-07T01:57:32.145Z,70.93
2022-09-07T01:58:32.386Z,70.62
2022-09-07T01:59:32.114Z,70.73
2022-09-07T02:00:32.101Z,70.93
2022-09-07T02:01:32.122Z,71.87
2022-09-07T02:02:32.102Z,71.47
2022-09-07T02:03:32.051Z,71.47
2022-09-07T02:04:32.058Z,72.38
2022-09-07T02:05:32.048Z,71.57
2022-09-07T02:06:32.010Z,71.06
2022-09-07T02:07:32.035Z,71.17
2022-09-07T02:08:32.051Z,71.67
2022-09-07T02:09:31.982Z,71.17
2022-09-07T02:10:32.157Z,70.96
2022-09-07T02:11:31.947Z,71.47
2022-09-07T02:12:31.929Z,71.37
2022-09-07T02:13:31.921Z,71.37
2022-09-07T02:14:31.901Z,70.66
2022-09-07T02:15:31.987Z,70.56
2022-09-07T02:16:31.878Z,70.86
2022-09-07T02:17:31.870Z,71.06
2022-09-07T02:18:31.901Z,71.57
2022-09-07T02:19:31.841Z,72.17
2022-09-07T02:20:31.837Z,71.87
2022-09-07T02:21:31.811Z,72.38
2022-09-07T02:22:31.819Z,71.87
2022-09-07T02:23:31.791Z,71.97
2022-09-07T02:24:31.761Z,72.38
2022-09-07T02:25:31.764Z,73.18
2022-09-07T02:26:31.741Z,72.98
2022-09-07T02:27:31.742Z,72.38
2022-09-07T02:28:31.819Z,71.67
2022-09-07T02:29:31.700Z,71.47
2022-09-07T02:30:31.709Z,71.57
2022-09-07T02:31:31.749Z,72.07
2022-09-07T02:32:31.663Z,71.26
2022-09-07T02:33:31.650Z,71.57
2022-09-07T02:34:32.434Z,71.37
2022-09-07T02:35:31.630Z,71.26
2022-09-07T02:36:31.600Z,71.70
2022-09-07T02:37:31.606Z,71.80
2022-09-07T02:38:31.775Z,71.60
2022-09-07T02:39:31.615Z,71.91
2022-09-07T02:40:31.569Z,71.70
2022-09-07T02:41:31.539Z,71.91
2022-09-07T02:42:31.534Z,71.91
2022-09-07T02:43:31.509Z,72.31
2022-09-07T02:44:31.562Z,71.60
2022-09-07T02:45:31.507Z,72.00
2022-09-07T02:46:31.523Z,72.31
2022-09-07T02:47:31.480Z,72.61
2022-09-07T02:48:31.562Z,73.02
2022-09-07T02:49:31.431Z,73.11
2022-09-07T02:50:31.436Z,73.11
2022-09-07T02:51:31.400Z,73.11
2022-09-07T02:52:31.403Z,73.52
2022-09-07T02:53:31.380Z,73.02
2022-09-07T02:54:31.371Z,73.32
2022-09-07T02:55:31.367Z,73.62
2022-09-07T02:56:31.339Z,73.93
2022-09-07T02:57:31.337Z,73.82
2022-09-07T02:58:31.455Z,74.22
2022-09-07T02:59:31.299Z,74.02
2022-09-07T03:00:31.307Z,73.82
2022-09-07T03:01:31.307Z,73.11
2022-09-07T03:02:31.306Z,73.96
2022-09-07T03:03:31.248Z,74.46
2022-09-07T03:04:31.231Z,73.96
2022-09-07T03:05:31.228Z,75.27
2022-09-07T03:06:31.210Z,75.48
2022-09-07T03:07:34.541Z,75.17
2022-09-07T03:08:31.263Z,74.66
2022-09-07T03:09:31.159Z,74.16
2022-09-07T03:10:31.171Z,73.75
2022-09-07T03:11:31.138Z,74.57
2022-09-07T03:12:31.160Z,75.48
2022-09-07T03:13:31.127Z,74.97
2022-09-07T03:14:31.110Z,75.68
2022-09-07T03:15:31.187Z,75.17
2022-09-07T03:16:31.078Z,75.78
2022-09-07T03:17:31.070Z,75.48
2022-09-07T03:18:31.188Z,75.17
2022-09-07T03:19:31.038Z,74.66
2022-09-07T03:20:31.040Z,74.57
2022-09-07T03:21:31.005Z,74.46
2022-09-07T03:22:30.998Z,74.97
2022-09-07T03:23:30.979Z,75.68
2022-09-07T03:24:30.971Z,76.18
2022-09-07T03:25:30.958Z,76.59
2022-09-07T03:26:30.942Z,76.48
2022-09-07T03:27:30.958Z,77.60
2022-09-07T03:28:30.995Z,77.50
2022-09-07T03:29:30.897Z,78.71
2022-09-07T03:30:30.914Z,77.80
2022-09-07T03:31:30.867Z,78.20
2022-09-07T03:32:30.858Z,78.71
2022-09-07T03:33:30.859Z,79.21
2022-09-07T03:34:30.838Z,79.11
2022-09-07T03:35:30.828Z,79.62
2022-09-07T03:36:30.811Z,79.92
2022-09-07T03:37:30.820Z,80.43
2022-09-07T03:38:30.988Z,80.06
2022-09-07T03:39:30.804Z,80.06
2022-09-07T03:40:30.767Z,79.55
2022-09-07T03:41:30.727Z,79.25
2022-09-07T03:42:30.743Z,78.75
2022-09-07T03:43:30.707Z,79.25
2022-09-07T03:44:30.699Z,78.95
2022-09-07T03:45:30.687Z,78.75
2022-09-07T03:46:30.694Z,79.75
2022-09-07T03:47:30.658Z,79.62
2022-09-07T03:48:30.755Z,79.75
2022-09-07T03:49:30.629Z,79.25
2022-09-07T03:50:30.626Z,79.86
2022-09-07T03:51:30.604Z,80.87
2022-09-07T03:52:30.589Z,80.66
2022-09-07T03:53:30.576Z,80.57
2022-09-07T03:54:30.559Z,80.87
2022-09-07T03:55:30.557Z,80.66
2022-09-07T03:56:30.535Z,80.26
2022-09-07T03:57:30.521Z,79.75
2022-09-07T03:58:30.654Z,80.66
2022-09-07T03:59:30.487Z,80.26
2022-09-07T04:00:30.499Z,80.26
2022-09-07T04:01:30.558Z,80.46
2022-09-07T04:02:30.503Z,80.36
2022-09-07T04:03:30.469Z,80.16
2022-09-07T04:04:30.437Z,80.97
2022-09-07T04:05:30.408Z,80.87
2022-09-07T04:06:30.399Z,80.66
2022-09-07T04:07:30.386Z,81.17
2022-09-07T04:08:30.591Z,80.77
2022-09-07T04:09:30.374Z,80.06
2022-09-07T04:10:30.348Z,79.66
2022-09-07T04:11:30.338Z,78.95
2022-09-07T04:12:30.325Z,79.25
2022-09-07T04:13:30.306Z,79.46
2022-09-07T04:14:30.317Z,79.35
2022-09-07T04:15:30.279Z,79.05
2022-09-07T04:16:30.319Z,78.75
2022-09-07T04:17:30.247Z,78.34
2022-09-07T04:18:30.441Z,77.13
2022-09-07T04:19:30.252Z,78.55
2022-09-07T04:20:30.217Z,80.87
2022-09-07T04:21:30.198Z,81.57
2022-09-07T04:22:30.188Z,81.88
2022-09-07T04:23:30.179Z,81.68
2022-09-07T04:24:30.167Z,79.96
2022-09-07T04:25:30.145Z,79.66
2022-09-07T04:26:30.144Z,81.17
2022-09-07T04:27:30.161Z,81.48
2022-09-07T04:28:30.260Z,81.07
2022-09-07T04:29:30.096Z,80.16
2022-09-07T04:30:30.135Z,80.06
2022-09-07T04:31:30.059Z,79.46
2022-09-07T04:32:30.047Z,80.16
2022-09-07T04:33:30.047Z,81.03
2022-09-07T04:34:30.027Z,81.54
2022-09-07T04:35:30.006Z,80.02
2022-09-07T04:36:30.021Z,79.32
2022-09-07T04:37:29.989Z,78.91
2022-09-07T04:38:30.220Z,79.32
2022-09-07T04:39:29.990Z,80.32
2022-09-07T04:40:29.953Z,80.53
2022-09-07T04:41:29.938Z,80.12
2022-09-07T04:42:29.925Z,80.12
2022-09-07T04:43:30.047Z,81.54
2022-09-07T04:44:29.910Z,81.03
2022-09-07T04:45:29.874Z,81.94
2022-09-07T04:46:29.955Z,81.54
2022-09-07T04:47:29.854Z,80.83
2022-09-07T04:48:30.028Z,80.12
2022-09-07T04:49:29.824Z,79.21
2022-09-07T04:50:29.805Z,78.30
2022-09-07T04:51:29.798Z,77.90
2022-09-07T04:52:29.836Z,78.61
2022-09-07T04:53:29.767Z,78.06
2022-09-07T04:54:29.767Z,77.76
2022-09-07T04:55:29.747Z,77.56
2022-09-07T04:56:29.740Z,78.27
2022-09-07T04:57:29.727Z,78.77
2022-09-07T04:58:29.933Z,78.67
2022-09-07T04:59:29.695Z,78.77
2022-09-07T05:00:29.687Z,78.37
2022-09-07T05:01:29.722Z,77.76
2022-09-07T05:02:29.704Z,77.36
2022-09-07T05:03:29.631Z,77.36
2022-09-07T05:04:29.649Z,76.95
2022-09-07T05:05:29.608Z,77.66
2022-09-07T05:06:29.622Z,78.57
2022-09-07T05:07:29.575Z,78.57
2022-09-07T05:08:29.680Z,77.76
2022-09-07T05:09:29.558Z,77.15
2022-09-07T05:10:29.541Z,77.56
2022-09-07T05:11:30.135Z,77.36
2022-09-07T05:12:29.516Z,76.86
2022-09-07T05:13:29.644Z,77.06
2022-09-07T05:14:29.497Z,77.56
2022-09-07T05:15:29.466Z,78.47
2022-09-07T05:16:29.592Z,77.86
2022-09-07T05:17:29.470Z,77.46
2022-09-07T05:18:29.665Z,77.97
2022-09-07T05:19:29.441Z,77.76
2022-09-07T05:20:29.435Z,77.15
2022-09-07T05:21:29.429Z,76.86
2022-09-07T05:22:29.377Z,77.26
2022-09-07T05:23:29.365Z,77.02
2022-09-07T05:24:29.379Z,77.12
2022-09-07T05:25:29.336Z,76.31
2022-09-07T05:26:29.329Z,76.21
2022-09-07T05:27:29.305Z,76.42
2022-09-07T05:28:29.460Z,76.21
2022-09-07T05:31:30.379Z,76.21
2022-09-07T05:32:29.371Z,75.91
2022-09-07T05:34:31.508Z,76.31
2022-09-07T05:35:30.347Z,76.42
2022-09-07T05:36:29.314Z,75.71
2022-09-07T05:37:29.227Z,77.02
2022-09-07T05:38:29.338Z,77.73
2022-09-07T05:39:29.242Z,77.93
2022-09-07T05:40:29.146Z,78.03
2022-09-07T05:41:29.130Z,77.32
2022-09-07T05:42:29.115Z,77.53
2022-09-07T05:43:29.104Z,77.12
2022-09-07T05:44:45.111Z,77.02
2022-09-07T05:45:30.117Z,76.42
2022-09-07T05:46:29.064Z,75.87
2022-09-07T05:47:29.046Z,76.58
2022-09-07T05:48:29.067Z,76.18
2022-09-07T05:49:29.026Z,76.38
2022-09-07T05:50:29.018Z,76.07
2022-09-07T05:51:28.995Z,75.77
2022-09-07T05:52:28.986Z,75.98
2022-09-07T05:53:28.975Z,76.78
2022-09-07T05:54:28.966Z,76.48
2022-09-07T05:55:30.336Z,76.18
2022-09-07T05:56:28.926Z,75.94
2022-09-07T05:57:28.916Z,76.14
2022-09-07T05:58:28.998Z,75.94
2022-09-07T05:59:28.895Z,76.04
2022-09-07T06:00:28.936Z,76.14
2022-09-07T06:01:28.857Z,76.95
2022-09-07T06:02:28.915Z,77.04
2022-09-07T06:03:28.888Z,77.04
2022-09-07T06:04:28.840Z,76.71
2022-09-07T06:05:28.819Z,77.11
2022-09-07T06:06:28.811Z,76.61
2022-09-07T06:07:28.776Z,76.91
2022-09-07T06:08:28.858Z,77.42
2022-09-07T06:09:30.664Z,77.31
2022-09-07T06:10:44.466Z,76.81
2022-09-07T06:11:29.726Z,77.21
2022-09-07T06:12:28.716Z,76.71
2022-09-07T06:13:28.794Z,76.91
2022-09-07T06:14:28.696Z,76.87
2022-09-07T06:15:28.672Z,77.38
2022-09-07T06:16:28.690Z,76.57
2022-09-07T06:17:28.645Z,76.67
2022-09-07T06:18:28.746Z,76.37
2022-09-07T06:19:28.626Z,76.47
2022-09-07T06:20:28.606Z,76.57
2022-09-07T06:21:28.601Z,76.54
2022-09-07T06:22:31.009Z,76.54
2022-09-07T06:23:28.627Z,76.14
2022-09-07T06:24:28.566Z,75.93
2022-09-07T06:25:28.536Z,75.99
2022-09-07T06:26:28.536Z,75.79
2022-09-07T06:27:28.516Z,75.79
2022-09-07T06:28:28.508Z,75.66
2022-09-07T06:29:28.495Z,75.56
2022-09-07T06:30:28.491Z,75.26
2022-09-07T06:31:28.569Z,75.05
2022-09-07T06:32:44.198Z,74.95
2022-09-07T06:33:29.455Z,74.92
2022-09-07T06:34:28.434Z,74.72
2022-09-07T06:35:28.405Z,74.82
2022-09-07T06:36:28.430Z,74.72
2022-09-07T06:37:28.386Z,74.82
2022-09-07T06:38:31.741Z,74.72
2022-09-07T06:39:28.443Z,74.82
2022-09-07T06:40:28.386Z,74.62
2022-09-07T06:42:29.425Z,75.12
2022-09-07T06:43:28.350Z,74.92
2022-09-07T06:44:28.396Z,74.82
2022-09-07T06:45:28.302Z,74.92
2022-09-07T06:47:29.255Z,75.15
2022-09-07T06:48:28.393Z,74.75
2022-09-07T06:49:28.241Z,74.95
2022-09-07T06:50:28.240Z,74.92
2022-09-07T06:51:28.238Z,75.22
2022-09-07T06:52:28.311Z,75.32
2022-09-07T06:55:29.165Z,75.02
2022-09-07T06:56:28.135Z,75.12
2022-09-07T06:57:28.111Z,75.12
2022-09-07T06:58:28.134Z,74.82
2022-09-07T06:59:28.098Z,74.82
2022-09-07T07:00:28.069Z,74.52
2022-09-07T07:01:28.173Z,74.68
2022-09-07T07:02:28.049Z,74.48
2022-09-07T07:03:28.134Z,74.48
2022-09-07T07:04:28.033Z,74.38
2022-09-07T07:05:28.010Z,74.24
2022-09-07T07:06:27.994Z,74.24
2022-09-07T07:07:27.991Z,73.94
2022-09-07T07:08:27.979Z,73.71
2022-09-07T07:09:27.977Z,73.81
2022-09-07T07:10:27.964Z,73.81
2022-09-07T07:11:27.928Z,73.67
2022-09-07T07:12:58.911Z,73.27
2022-09-07T07:13:58.778Z,73.07
2022-09-07T07:14:58.778Z,72.97
2022-09-07T07:15:58.802Z,73.07
2022-09-07T07:16:58.747Z,72.87
2022-09-07T07:18:05.467Z,73.07
2022-09-07T07:18:59.717Z,72.87
2022-09-07T07:19:58.716Z,72.87
2022-09-07T07:20:58.714Z,72.77
2022-09-07T07:22:18.722Z,72.77
2022-09-07T07:22:59.670Z,72.74
2022-09-07T07:23:58.668Z,72.63
2022-09-07T07:24:58.703Z,72.94
2022-09-07T07:25:58.618Z,72.63
2022-09-07T07:26:58.617Z,72.43
2022-09-07T07:29:58.570Z,72.09
2022-09-07T07:30:58.567Z,71.86
2022-09-07T07:31:58.547Z,71.86
2022-09-07T07:32:58.572Z,71.56
2022-09-07T07:33:58.567Z,70.96
2022-09-07T07:34:58.508Z,70.76
2022-09-07T07:35:58.489Z,70.86
2022-09-07T07:36:58.477Z,70.89
2022-09-07T07:39:00.119Z,69.19
2022-09-07T07:42:03.054Z,69.92
2022-09-07T07:42:59.399Z,69.32
2022-09-07T07:43:58.402Z,71.33
2022-09-07T07:46:01.220Z,72.24
2022-09-07T07:46:58.407Z,71.93
2022-09-07T07:47:58.338Z,73.13
2022-09-07T07:48:58.328Z,73.37
2022-09-07T07:51:00.291Z,74.07
2022-09-07T07:53:59.647Z,76.18
2022-09-07T07:54:58.302Z,76.08
2022-09-07T07:55:58.244Z,76.58
2022-09-07T07:56:58.218Z,76.58
2022-09-07T07:57:58.199Z,76.89
2022-09-07T07:58:58.189Z,76.98
2022-09-07T07:59:58.170Z,77.19
2022-09-07T08:00:58.381Z,77.99
2022-09-07T08:01:58.299Z,77.75
2022-09-07T08:02:58.140Z,78.15
2022-09-07T08:03:58.128Z,78.05
2022-09-07T08:04:58.108Z,77.65
2022-09-07T08:05:58.088Z,77.85
2022-09-07T08:06:58.089Z,77.75
2022-09-07T08:07:58.067Z,77.55
2022-09-07T08:08:58.070Z,77.15
2022-09-07T08:09:58.039Z,77.05
2022-09-07T08:10:58.028Z,77.45
2022-09-07T08:11:58.017Z,77.95
2022-09-07T08:12:58.003Z,77.35
2022-09-07T08:13:57.999Z,77.45
2022-09-07T08:14:57.999Z,77.35
2022-09-07T08:15:58.040Z,77.45
2022-09-07T08:16:57.949Z,77.45
2022-09-07T08:17:57.944Z,77.25
2022-09-07T08:18:57.944Z,77.35
2022-09-07T08:19:57.908Z,77.15
2022-09-07T08:20:57.920Z,77.45
2022-09-07T08:21:57.916Z,77.45
2022-09-07T08:22:57.887Z,77.35
2022-09-07T08:23:57.868Z,77.65
2022-09-07T08:24:57.839Z,77.35
2022-09-07T08:25:57.828Z,77.55
2022-09-07T08:26:57.809Z,77.05
2022-09-07T08:27:57.799Z,77.75
2022-09-07T08:28:57.808Z,78.35
2022-09-07T08:29:57.768Z,77.95
2022-09-07T08:30:57.766Z,77.85
2022-09-07T08:31:57.786Z,78.05
2022-09-07T08:32:57.729Z,78.35
2022-09-07T08:33:57.724Z,78.49
2022-09-07T08:34:57.709Z,78.79
2022-09-07T08:35:57.688Z,78.39
2022-09-07T08:36:57.681Z,78.59
2022-09-07T08:37:57.658Z,78.39
2022-09-07T08:38:57.669Z,78.79
2022-09-07T08:39:57.658Z,78.49
2022-09-07T08:40:57.633Z,78.69
2022-09-07T08:41:57.609Z,78.69
2022-09-07T08:42:57.600Z,78.49
2022-09-07T08:43:57.598Z,78.39
2022-09-07T08:44:57.570Z,78.09
2022-09-07T08:45:57.572Z,77.65
2022-09-07T08:46:57.645Z,77.45
2022-09-07T08:47:57.527Z,76.85
2022-09-07T08:48:57.529Z,77.05
2022-09-07T08:49:57.507Z,77.01
2022-09-07T08:50:57.501Z,76.91
2022-09-07T08:51:57.477Z,76.71
2022-09-07T08:52:57.468Z,76.78
2022-09-07T08:53:57.460Z,77.28
2022-09-07T08:54:57.442Z,77.08
2022-09-07T08:55:57.427Z,77.48
2022-09-07T08:57:58.392Z,77.04
2022-09-07T08:58:57.399Z,77.04
2022-09-07T08:59:57.378Z,77.04
2022-09-07T09:05:58.385Z,75.67
2022-09-07T09:06:57.446Z,75.16
2022-09-07T09:07:57.259Z,74.96
2022-09-07T09:08:57.263Z,74.83
2022-09-07T09:09:57.242Z,74.79
2022-09-07T09:10:57.232Z,74.76
2022-09-07T09:11:57.214Z,74.62
2022-09-07T09:12:57.248Z,74.49
2022-09-07T09:13:57.210Z,73.85
2022-09-07T09:14:57.195Z,72.81
2022-09-07T09:15:57.268Z,72.28
2022-09-07T09:16:57.174Z,71.42
2022-09-07T09:17:57.130Z,70.68
2022-09-07T09:18:57.166Z,69.36
2022-09-07T09:19:57.114Z,68.43
2022-09-07T09:20:57.100Z,66.51
2022-09-07T09:21:57.078Z,66.41
2022-09-07T09:22:57.071Z,66.67
2022-09-07T09:23:57.069Z,66.44
2022-09-07T09:24:57.042Z,65.92
2022-09-07T09:25:57.021Z,65.89
2022-09-07T09:26:57.025Z,65.46
2022-09-07T09:27:56.995Z,64.50
2022-09-07T09:28:57.002Z,63.68
2022-09-07T09:29:56.974Z,63.15
2022-09-07T09:30:57.054Z,61.64
2022-09-07T09:31:56.941Z,60.92
2022-09-07T09:32:56.931Z,60.10
2022-09-07T09:33:56.937Z,59.50
2022-09-07T09:34:56.923Z,59.47
2022-09-07T09:35:56.892Z,59.34
2022-09-07T09:36:56.896Z,58.43
2022-09-07T09:37:56.863Z,57.74
2022-09-07T09:38:56.871Z,57.81
2022-09-07T09:39:59.244Z,57.32
2022-09-07T09:40:57.845Z,56.21
2022-09-07T09:41:56.816Z,55.62
2022-09-07T09:42:56.821Z,55.49
2022-09-07T09:43:56.805Z,54.50
2022-09-07T09:44:56.789Z,54.38
2022-09-07T09:46:12.738Z,54.45
2022-09-07T09:47:57.807Z,54.43
2022-09-07T09:48:56.743Z,53.61
2022-09-07T09:49:56.722Z,54.20
2022-09-07T09:52:57.699Z,53.06
2022-09-07T09:53:56.677Z,52.65
2022-09-07T09:55:03.436Z,52.48
2022-09-07T09:55:57.665Z,52.48
2022-09-07T09:56:56.633Z,50.61
2022-09-07T09:59:05.414Z,52.03
2022-09-07T10:00:00.538Z,51.67
2022-09-07T10:03:59.517Z,52.61
2022-09-07T10:04:56.548Z,52.50
2022-09-07T10:05:56.509Z,52.11
2022-09-07T10:06:56.503Z,51.64
2022-09-07T10:07:56.501Z,52.26
2022-09-07T10:08:56.513Z,52.87
2022-09-07T10:09:56.464Z,53.79
2022-09-07T10:10:56.466Z,54.28
2022-09-07T10:12:11.862Z,54.28
2022-09-07T10:12:57.435Z,54.55
2022-09-07T10:13:56.435Z,54.11
2022-09-07T10:14:56.457Z,52.61
2022-09-07T10:15:56.456Z,52.14
2022-09-07T10:16:56.388Z,52.63
2022-09-07T10:17:56.379Z,53.00
2022-09-07T10:18:56.346Z,52.31
2022-09-07T10:19:56.337Z,52.53
2022-09-07T10:20:56.317Z,52.50
2022-09-07T10:21:56.328Z,52.70
2022-09-07T10:22:56.288Z,51.52
2022-09-07T10:23:56.276Z,52.31
2022-09-07T10:24:56.334Z,52.48
2022-09-07T10:25:56.241Z,51.40
2022-09-07T10:26:56.226Z,51.86
2022-09-07T10:27:56.248Z,52.14
2022-09-07T10:29:11.933Z,50.83
2022-09-07T10:29:57.288Z,51.10
2022-09-07T10:30:56.235Z,49.90
2022-09-07T10:31:56.174Z,49.90
2022-09-07T10:32:56.150Z,50.27
2022-09-07T10:34:57.184Z,49.33
2022-09-07T10:35:56.122Z,48.45
2022-09-07T10:36:56.097Z,46.76
2022-09-07T10:37:56.450Z,46.47
2022-09-07T10:38:56.152Z,45.80
2022-09-07T10:40:00.219Z,45.51
2022-09-07T10:40:56.063Z,45.53
2022-09-07T10:41:56.045Z,45.75
2022-09-07T10:43:57.045Z,47.47
2022-09-07T10:44:56.013Z,48.25
2022-09-07T10:45:56.029Z,48.13
2022-09-07T10:46:56.669Z,47.42
2022-09-07T10:47:55.973Z,47.13
2022-09-07T10:48:55.934Z,47.59
2022-09-07T10:50:56.916Z,45.63
2022-09-07T10:51:55.915Z,46.22
2022-09-07T10:52:55.900Z,46.63
2022-09-07T10:54:56.900Z,46.36
2022-09-07T10:55:55.874Z,46.85
2022-09-07T10:56:55.866Z,47.36
2022-09-07T10:57:55.865Z,47.76
2022-09-07T10:59:03.930Z,47.58
2022-09-07T11:00:12.236Z,46.50
2022-09-07T11:00:56.814Z,47.19
2022-09-07T11:01:55.827Z,47.12
2022-09-07T11:03:56.858Z,47.91
2022-09-07T11:04:55.760Z,48.59
2022-09-07T11:05:55.745Z,47.61
2022-09-07T11:06:55.710Z,47.31
2022-09-07T11:07:55.744Z,46.92
2022-09-07T11:09:56.716Z,47.51
2022-09-07T11:10:55.705Z,47.41
2022-09-07T11:12:03.839Z,48.39
2022-09-07T11:12:56.694Z,47.51
2022-09-07T11:14:11.997Z,47.22
2022-09-07T11:14:56.722Z,47.71
2022-09-07T11:15:55.657Z,47.91
2022-09-07T11:16:55.718Z,48.32
2022-09-07T11:17:55.650Z,48.61
2022-09-07T11:19:34.957Z,48.13
2022-09-07T11:19:56.606Z,47.24
2022-09-07T11:20:55.634Z,47.95
2022-09-07T11:21:56.773Z,48.22
2022-09-07T11:22:55.577Z,48.32
2022-09-07T11:23:55.498Z,48.10
2022-09-07T11:25:56.457Z,48.00
2022-09-07T11:26:55.559Z,46.43
2022-09-07T11:27:55.462Z,46.13
2022-09-07T11:29:56.466Z,47.02
2022-09-07T11:30:59.846Z,46.62
2022-09-07T11:31:56.537Z,47.19
2022-09-07T11:32:55.424Z,45.62
2022-09-07T11:34:56.468Z,46.70
2022-09-07T11:35:55.383Z,46.60
2022-09-07T11:36:55.458Z,47.19
2022-09-07T11:37:55.477Z,46.60
2022-09-07T11:38:55.443Z,46.41
2022-09-07T11:39:55.439Z,45.62
2022-09-07T11:40:55.362Z,46.01
2022-09-07T11:41:55.332Z,46.28
2022-09-07T11:42:55.547Z,44.71
2022-09-07T11:43:55.271Z,44.52
2022-09-07T11:44:55.282Z,45.30
2022-09-07T11:45:55.372Z,45.10
2022-09-07T11:46:55.223Z,45.30
2022-09-07T11:47:55.188Z,44.02
2022-09-07T11:48:55.230Z,45.30
2022-09-07T11:49:59.206Z,45.40
2022-09-07T11:50:55.154Z,45.99
2022-09-07T11:51:55.153Z,46.26
2022-09-07T11:52:55.130Z,46.46
2022-09-07T11:53:55.212Z,45.57
2022-09-07T11:54:55.156Z,45.36
2022-09-07T11:55:55.085Z,45.65
2022-09-07T11:56:55.116Z,43.79
2022-09-07T11:57:55.892Z,44.08
2022-09-07T11:58:55.094Z,43.79
2022-09-07T11:59:55.181Z,43.19
2022-09-07T12:00:55.048Z,43.69
2022-09-07T12:01:55.015Z,44.27
2022-09-07T12:02:59.837Z,43.98
2022-09-07T12:03:56.195Z,44.47
2022-09-07T12:04:56.513Z,44.77
2022-09-07T12:05:54.974Z,44.47
2022-09-07T12:06:54.951Z,44.67
2022-09-07T12:07:54.968Z,44.57
2022-09-07T12:08:54.975Z,43.96
2022-09-07T12:09:55.108Z,44.45
2022-09-07T12:10:54.898Z,44.94
2022-09-07T12:11:55.017Z,43.57
2022-09-07T12:12:54.966Z,43.76
2022-09-07T12:13:54.910Z,43.37
2022-09-07T12:14:54.926Z,44.55
2022-09-07T12:15:54.968Z,44.26
2022-09-07T12:16:54.909Z,44.16
2022-09-07T12:17:54.873Z,44.26
2022-09-07T12:18:54.926Z,43.84
2022-09-07T12:19:54.879Z,43.35
2022-09-07T12:20:54.954Z,42.86
2022-09-07T12:21:54.893Z,42.18
2022-09-07T12:22:54.770Z,41.88
2022-09-07T12:23:54.730Z,42.57
2022-09-07T12:24:54.755Z,42.18
2022-09-07T12:25:54.750Z,42.76
2022-09-07T12:26:54.686Z,42.66
2022-09-07T12:27:54.800Z,42.18
2022-09-07T12:28:54.861Z,42.47
2022-09-07T12:29:54.677Z,42.08
2022-09-07T12:30:54.829Z,42.47
2022-09-07T12:31:59.832Z,42.86
2022-09-07T12:32:57.027Z,42.86
2022-09-07T12:33:54.803Z,42.05
2022-09-07T12:34:54.608Z,40.41
2022-09-07T12:35:54.558Z,40.61
2022-09-07T12:36:54.540Z,41.78
2022-09-07T12:37:54.542Z,41.49
2022-09-07T12:38:54.549Z,42.18
2022-09-07T12:39:54.566Z,42.08
2022-09-07T12:40:54.490Z,42.94
2022-09-07T12:42:55.486Z,42.35
2022-09-07T12:43:54.451Z,41.47
2022-09-07T12:44:54.542Z,41.37
2022-09-07T12:45:54.500Z,40.98
2022-09-07T12:46:54.433Z,42.45
2022-09-07T12:47:54.484Z,42.45
2022-09-07T12:48:54.398Z,42.25
2022-09-07T12:49:54.410Z,41.94
2022-09-07T12:50:54.430Z,42.03
2022-09-07T12:52:09.117Z,41.25
2022-09-07T12:52:55.332Z,41.35
2022-09-07T12:53:57.703Z,41.84
2022-09-07T12:55:16.358Z,41.64
2022-09-07T12:57:55.293Z,41.35
2022-09-07T12:58:54.254Z,40.66
2022-09-07T12:59:54.604Z,39.69
2022-09-07T13:00:54.268Z,40.47
2022-09-07T13:01:54.307Z,40.86
2022-09-07T13:02:54.258Z,41.05
2022-09-07T13:03:54.205Z,40.66
2022-09-07T13:04:54.197Z,40.76
2022-09-07T13:05:54.245Z,40.95
2022-09-07T13:07:09.397Z,41.15
2022-09-07T13:08:01.743Z,40.47
2022-09-07T13:08:55.237Z,39.49
2022-09-07T13:09:54.235Z,40.86
2022-09-07T13:10:54.107Z,41.25
2022-09-07T13:11:54.097Z,40.86
2022-09-07T13:12:56.518Z,41.45
2022-09-07T13:14:02.954Z,41.84
2022-09-07T13:14:55.078Z,41.05
2022-09-07T13:15:54.558Z,40.47
2022-09-07T13:17:55.042Z,40.08
2022-09-07T13:18:54.006Z,40.95
2022-09-07T13:19:54.027Z,41.35
2022-09-07T13:20:54.061Z,40.66
2022-09-07T13:21:54.026Z,41.15
2022-09-07T13:22:53.960Z,40.08
2022-09-07T13:23:53.940Z,40.08
2022-09-07T13:24:53.946Z,40.08
2022-09-07T13:25:53.928Z,40.86
2022-09-07T13:26:53.922Z,40.08
2022-09-07T13:27:53.900Z,40.68
2022-09-07T13:28:54.808Z,40.98
2022-09-07T13:29:55.078Z,40.39
2022-09-07T13:30:53.953Z,40.58
2022-09-07T13:31:53.911Z,41.37
2022-09-07T13:33:09.329Z,41.29
2022-09-07T13:33:54.811Z,41.29
2022-09-07T13:34:53.852Z,41.09